sensor_id;sensor_type;location;lat;lon;timestamp;P1;durP1;ratioP1;P2;durP2;ratioP2
22024;SDS011;11176;51.448;6.650;2022-11-25T00:01:25;21.35;;;6.38;;
22024;SDS011;11176;51.448;6.650;2022-11-25T00:03:53;22.38;;;5.72;;
22024;SDS011;11176;51.448;6.650;2022-11-25T00:06:27;20.73;;;6.22;;
22024;SDS011;11176;51.448;6.650;2022-11-25T00:08:59;23.05;;;6.50;;
22024;SDS011;11176;51.448;6.650;2022-11-25T00:11:26;18.60;;;6.45;;
22024;SDS011;11176;51.448;6.650;2022-11-25T00:13:53;21.23;;;5.88;;
22024;SDS011;11176;51.448;6.650;2022-11-25T00:16:21;20.65;;;5.85;;
22024;SDS011;11176;51.448;6.650;2022-11-25T00:18:50;17.40;;;5.00;;
22024;SDS011;11176;51.448;6.650;2022-11-25T00:21:18;12.40;;;4.30;;
22024;SDS011;11176;51.448;6.650;2022-11-25T00:23:50;11.15;;;3.72;;
22024;SDS011;11176;51.448;6.650;2022-11-25T00:26:18;17.13;;;3.85;;
22024;SDS011;11176;51.448;6.650;2022-11-25T00:28:45;14.07;;;3.70;;
22024;SDS011;11176;51.448;6.650;2022-11-25T00:31:17;18.38;;;4.38;;
22024;SDS011;11176;51.448;6.650;2022-11-25T00:33:45;14.50;;;3.35;;
22024;SDS011;11176;51.448;6.650;2022-11-25T00:36:16;10.80;;;3.33;;
22024;SDS011;11176;51.448;6.650;2022-11-25T00:38:43;12.15;;;3.13;;
22024;SDS011;11176;51.448;6.650;2022-11-25T00:41:10;13.73;;;3.22;;
22024;SDS011;11176;51.448;6.650;2022-11-25T00:43:55;13.70;;;2.90;;
22024;SDS011;11176;51.448;6.650;2022-11-25T00:46:40;10.27;;;2.70;;
22024;SDS011;11176;51.448;6.650;2022-11-25T00:49:07;11.88;;;3.00;;
22024;SDS011;11176;51.448;6.650;2022-11-25T00:51:34;11.93;;;2.65;;
22024;SDS011;11176;51.448;6.650;2022-11-25T00:54:00;13.15;;;3.25;;
22024;SDS011;11176;51.448;6.650;2022-11-25T00:56:27;13.77;;;3.22;;
22024;SDS011;11176;51.448;6.650;2022-11-25T00:58:56;16.67;;;3.42;;
22024;SDS011;11176;51.448;6.650;2022-11-25T01:01:23;18.77;;;3.53;;
22024;SDS011;11176;51.448;6.650;2022-11-25T01:03:50;13.43;;;3.25;;
22024;SDS011;11176;51.448;6.650;2022-11-25T01:06:17;12.50;;;3.40;;
22024;SDS011;11176;51.448;6.650;2022-11-25T01:08:44;16.67;;;4.15;;
22024;SDS011;11176;51.448;6.650;2022-11-25T01:11:12;12.10;;;3.22;;
22024;SDS011;11176;51.448;6.650;2022-11-25T01:13:40;12.57;;;3.85;;
22024;SDS011;11176;51.448;6.650;2022-11-25T01:16:09;17.85;;;4.55;;
22024;SDS011;11176;51.448;6.650;2022-11-25T01:18:37;15.70;;;3.70;;
22024;SDS011;11176;51.448;6.650;2022-11-25T01:21:07;12.68;;;3.28;;
22024;SDS011;11176;51.448;6.650;2022-11-25T01:23:35;14.25;;;3.40;;
22024;SDS011;11176;51.448;6.650;2022-11-25T01:26:03;14.70;;;3.30;;
22024;SDS011;11176;51.448;6.650;2022-11-25T01:28:31;19.52;;;3.63;;
22024;SDS011;11176;51.448;6.650;2022-11-25T01:31:19;13.93;;;3.85;;
22024;SDS011;11176;51.448;6.650;2022-11-25T01:33:46;16.33;;;4.15;;
22024;SDS011;11176;51.448;6.650;2022-11-25T01:36:15;15.85;;;4.07;;
22024;SDS011;11176;51.448;6.650;2022-11-25T01:38:43;19.55;;;4.43;;
22024;SDS011;11176;51.448;6.650;2022-11-25T01:41:11;16.92;;;3.92;;
22024;SDS011;11176;51.448;6.650;2022-11-25T01:43:39;13.38;;;3.70;;
22024;SDS011;11176;51.448;6.650;2022-11-25T01:48:58;12.18;;;3.90;;
22024;SDS011;11176;51.448;6.650;2022-11-25T01:51:35;17.55;;;4.45;;
22024;SDS011;11176;51.448;6.650;2022-11-25T01:54:07;18.75;;;4.88;;
22024;SDS011;11176;51.448;6.650;2022-11-25T01:56:38;14.48;;;5.03;;
22024;SDS011;11176;51.448;6.650;2022-11-25T01:59:12;16.50;;;4.82;;
22024;SDS011;11176;51.448;6.650;2022-11-25T02:01:39;14.88;;;5.00;;
22024;SDS011;11176;51.448;6.650;2022-11-25T02:04:06;11.88;;;4.35;;
22024;SDS011;11176;51.448;6.650;2022-11-25T02:06:39;15.18;;;4.60;;
22024;SDS011;11176;51.448;6.650;2022-11-25T02:09:12;16.25;;;3.85;;
22024;SDS011;11176;51.448;6.650;2022-11-25T02:11:40;11.65;;;3.42;;
22024;SDS011;11176;51.448;6.650;2022-11-25T02:14:11;15.38;;;3.45;;
22024;SDS011;11176;51.448;6.650;2022-11-25T02:16:39;14.13;;;3.85;;
22024;SDS011;11176;51.448;6.650;2022-11-25T02:19:08;14.93;;;3.63;;
22024;SDS011;11176;51.448;6.650;2022-11-25T02:21:49;13.35;;;3.60;;
22024;SDS011;11176;51.448;6.650;2022-11-25T02:24:33;12.65;;;3.80;;
22024;SDS011;11176;51.448;6.650;2022-11-25T02:27:08;16.98;;;4.07;;
22024;SDS011;11176;51.448;6.650;2022-11-25T02:29:34;19.90;;;4.13;;
22024;SDS011;11176;51.448;6.650;2022-11-25T02:32:03;10.43;;;3.15;;
22024;SDS011;11176;51.448;6.650;2022-11-25T02:34:30;12.45;;;3.10;;
22024;SDS011;11176;51.448;6.650;2022-11-25T02:36:58;15.95;;;3.38;;
22024;SDS011;11176;51.448;6.650;2022-11-25T02:39:25;11.98;;;2.63;;
22024;SDS011;11176;51.448;6.650;2022-11-25T02:41:55;11.90;;;3.03;;
22024;SDS011;11176;51.448;6.650;2022-11-25T02:44:24;12.63;;;3.42;;
22024;SDS011;11176;51.448;6.650;2022-11-25T02:46:52;12.55;;;2.90;;
22024;SDS011;11176;51.448;6.650;2022-11-25T02:49:18;11.52;;;3.60;;
22024;SDS011;11176;51.448;6.650;2022-11-25T02:51:44;13.43;;;3.72;;
22024;SDS011;11176;51.448;6.650;2022-11-25T02:54:12;14.23;;;3.25;;
22024;SDS011;11176;51.448;6.650;2022-11-25T02:56:41;14.77;;;2.95;;
22024;SDS011;11176;51.448;6.650;2022-11-25T02:59:07;14.77;;;3.00;;
22024;SDS011;11176;51.448;6.650;2022-11-25T03:01:35;14.25;;;3.10;;
22024;SDS011;11176;51.448;6.650;2022-11-25T03:04:05;11.07;;;3.25;;
22024;SDS011;11176;51.448;6.650;2022-11-25T03:06:32;9.88;;;2.85;;
22024;SDS011;11176;51.448;6.650;2022-11-25T03:08:59;7.10;;;2.95;;
22024;SDS011;11176;51.448;6.650;2022-11-25T03:11:26;10.38;;;2.83;;
22024;SDS011;11176;51.448;6.650;2022-11-25T03:14:12;11.68;;;2.80;;
22024;SDS011;11176;51.448;6.650;2022-11-25T03:16:40;13.38;;;3.17;;
22024;SDS011;11176;51.448;6.650;2022-11-25T03:19:07;10.77;;;3.00;;
22024;SDS011;11176;51.448;6.650;2022-11-25T03:21:34;16.13;;;3.25;;
22024;SDS011;11176;51.448;6.650;2022-11-25T03:24:00;13.55;;;3.35;;
22024;SDS011;11176;51.448;6.650;2022-11-25T03:26:26;11.57;;;3.20;;
22024;SDS011;11176;51.448;6.650;2022-11-25T03:28:53;11.75;;;3.30;;
22024;SDS011;11176;51.448;6.650;2022-11-25T03:31:20;14.63;;;3.17;;
22024;SDS011;11176;51.448;6.650;2022-11-25T03:33:46;12.50;;;3.28;;
22024;SDS011;11176;51.448;6.650;2022-11-25T03:36:13;11.65;;;3.78;;
22024;SDS011;11176;51.448;6.650;2022-11-25T03:38:40;12.80;;;3.25;;
22024;SDS011;11176;51.448;6.650;2022-11-25T03:41:06;7.88;;;2.75;;
22024;SDS011;11176;51.448;6.650;2022-11-25T03:43:33;13.02;;;3.30;;
22024;SDS011;11176;51.448;6.650;2022-11-25T03:46:01;12.90;;;3.80;;
22024;SDS011;11176;51.448;6.650;2022-11-25T03:48:27;11.20;;;3.08;;
22024;SDS011;11176;51.448;6.650;2022-11-25T03:50:54;11.55;;;3.65;;
22024;SDS011;11176;51.448;6.650;2022-11-25T03:53:22;13.70;;;3.83;;
22024;SDS011;11176;51.448;6.650;2022-11-25T03:55:49;15.90;;;4.60;;
22024;SDS011;11176;51.448;6.650;2022-11-25T03:58:19;14.05;;;4.68;;
22024;SDS011;11176;51.448;6.650;2022-11-25T04:00:47;16.85;;;5.78;;
22024;SDS011;11176;51.448;6.650;2022-11-25T04:03:14;16.92;;;6.18;;
22024;SDS011;11176;51.448;6.650;2022-11-25T04:05:40;15.15;;;6.80;;
22024;SDS011;11176;51.448;6.650;2022-11-25T04:08:07;17.80;;;6.57;;
22024;SDS011;11176;51.448;6.650;2022-11-25T04:10:35;16.83;;;6.60;;
22024;SDS011;11176;51.448;6.650;2022-11-25T04:13:03;18.75;;;5.82;;
22024;SDS011;11176;51.448;6.650;2022-11-25T04:15:37;14.10;;;4.45;;
22024;SDS011;11176;51.448;6.650;2022-11-25T04:18:04;17.70;;;4.70;;
22024;SDS011;11176;51.448;6.650;2022-11-25T04:20:32;15.93;;;4.25;;
22024;SDS011;11176;51.448;6.650;2022-11-25T04:23:02;14.68;;;3.88;;
22024;SDS011;11176;51.448;6.650;2022-11-25T04:25:32;13.93;;;3.45;;
22024;SDS011;11176;51.448;6.650;2022-11-25T04:27:59;11.48;;;3.70;;
22024;SDS011;11176;51.448;6.650;2022-11-25T04:30:30;13.43;;;3.72;;
22024;SDS011;11176;51.448;6.650;2022-11-25T04:32:58;12.48;;;3.50;;
22024;SDS011;11176;51.448;6.650;2022-11-25T04:35:26;17.25;;;4.45;;
22024;SDS011;11176;51.448;6.650;2022-11-25T04:37:53;16.77;;;3.67;;
22024;SDS011;11176;51.448;6.650;2022-11-25T04:40:21;15.20;;;3.97;;
22024;SDS011;11176;51.448;6.650;2022-11-25T04:42:56;13.23;;;3.58;;
22024;SDS011;11176;51.448;6.650;2022-11-25T04:45:31;13.20;;;3.30;;
22024;SDS011;11176;51.448;6.650;2022-11-25T04:48:19;13.02;;;3.47;;
22024;SDS011;11176;51.448;6.650;2022-11-25T04:50:45;13.18;;;3.70;;
22024;SDS011;11176;51.448;6.650;2022-11-25T04:53:12;12.80;;;4.10;;
22024;SDS011;11176;51.448;6.650;2022-11-25T04:55:39;16.30;;;3.95;;
22024;SDS011;11176;51.448;6.650;2022-11-25T04:58:11;12.63;;;4.03;;
22024;SDS011;11176;51.448;6.650;2022-11-25T05:00:39;17.23;;;5.03;;
22024;SDS011;11176;51.448;6.650;2022-11-25T05:03:08;17.80;;;5.50;;
22024;SDS011;11176;51.448;6.650;2022-11-25T05:05:37;17.85;;;6.90;;
22024;SDS011;11176;51.448;6.650;2022-11-25T05:08:04;16.65;;;6.78;;
22024;SDS011;11176;51.448;6.650;2022-11-25T05:10:31;16.83;;;6.03;;
22024;SDS011;11176;51.448;6.650;2022-11-25T05:12:58;18.05;;;5.95;;
22024;SDS011;11176;51.448;6.650;2022-11-25T05:15:24;14.70;;;5.47;;
22024;SDS011;11176;51.448;6.650;2022-11-25T05:17:51;15.98;;;5.97;;
22024;SDS011;11176;51.448;6.650;2022-11-25T05:20:31;15.10;;;5.30;;
22024;SDS011;11176;51.448;6.650;2022-11-25T05:22:57;16.05;;;4.53;;
22024;SDS011;11176;51.448;6.650;2022-11-25T05:25:24;16.33;;;5.65;;
22024;SDS011;11176;51.448;6.650;2022-11-25T05:28:12;14.88;;;4.28;;
22024;SDS011;11176;51.448;6.650;2022-11-25T05:30:38;15.75;;;4.65;;
22024;SDS011;11176;51.448;6.650;2022-11-25T05:33:05;17.02;;;4.55;;
22024;SDS011;11176;51.448;6.650;2022-11-25T05:35:32;15.75;;;5.60;;
22024;SDS011;11176;51.448;6.650;2022-11-25T05:37:59;16.80;;;4.70;;
22024;SDS011;11176;51.448;6.650;2022-11-25T05:40:26;13.88;;;5.47;;
22024;SDS011;11176;51.448;6.650;2022-11-25T05:43:06;15.20;;;5.07;;
22024;SDS011;11176;51.448;6.650;2022-11-25T05:45:36;20.40;;;5.82;;
22024;SDS011;11176;51.448;6.650;2022-11-25T05:48:05;13.23;;;4.82;;
22024;SDS011;11176;51.448;6.650;2022-11-25T05:50:32;13.30;;;5.88;;
22024;SDS011;11176;51.448;6.650;2022-11-25T05:53:03;17.83;;;7.10;;
22024;SDS011;11176;51.448;6.650;2022-11-25T05:55:33;16.77;;;6.95;;
22024;SDS011;11176;51.448;6.650;2022-11-25T05:58:02;16.20;;;6.45;;
22024;SDS011;11176;51.448;6.650;2022-11-25T06:00:32;17.88;;;6.50;;
22024;SDS011;11176;51.448;6.650;2022-11-25T06:03:06;16.88;;;6.65;;
22024;SDS011;11176;51.448;6.650;2022-11-25T06:05:33;18.80;;;7.13;;
22024;SDS011;11176;51.448;6.650;2022-11-25T06:08:01;15.95;;;6.18;;
22024;SDS011;11176;51.448;6.650;2022-11-25T06:10:28;14.50;;;6.15;;
22024;SDS011;11176;51.448;6.650;2022-11-25T06:12:54;18.33;;;5.93;;
22024;SDS011;11176;51.448;6.650;2022-11-25T06:15:22;16.65;;;5.60;;
22024;SDS011;11176;51.448;6.650;2022-11-25T06:17:51;18.45;;;5.72;;
22024;SDS011;11176;51.448;6.650;2022-11-25T06:20:22;17.92;;;5.55;;
22024;SDS011;11176;51.448;6.650;2022-11-25T06:22:49;17.60;;;5.15;;
22024;SDS011;11176;51.448;6.650;2022-11-25T06:25:21;13.45;;;5.10;;
22024;SDS011;11176;51.448;6.650;2022-11-25T06:27:49;14.77;;;4.40;;
22024;SDS011;11176;51.448;6.650;2022-11-25T06:30:35;13.90;;;4.40;;
22024;SDS011;11176;51.448;6.650;2022-11-25T06:33:11;14.55;;;4.65;;
22024;SDS011;11176;51.448;6.650;2022-11-25T06:35:40;17.13;;;4.68;;
22024;SDS011;11176;51.448;6.650;2022-11-25T06:38:07;16.00;;;4.25;;
22024;SDS011;11176;51.448;6.650;2022-11-25T06:40:33;16.13;;;4.25;;
22024;SDS011;11176;51.448;6.650;2022-11-25T06:43:00;13.75;;;4.07;;
22024;SDS011;11176;51.448;6.650;2022-11-25T06:45:26;16.65;;;4.85;;
22024;SDS011;11176;51.448;6.650;2022-11-25T06:47:53;14.15;;;4.68;;
22024;SDS011;11176;51.448;6.650;2022-11-25T06:50:19;17.55;;;4.38;;
22024;SDS011;11176;51.448;6.650;2022-11-25T06:52:46;15.02;;;4.38;;
22024;SDS011;11176;51.448;6.650;2022-11-25T06:55:12;18.23;;;5.18;;
22024;SDS011;11176;51.448;6.650;2022-11-25T06:57:39;13.35;;;4.30;;
22024;SDS011;11176;51.448;6.650;2022-11-25T07:00:05;10.40;;;4.07;;
22024;SDS011;11176;51.448;6.650;2022-11-25T07:02:32;13.68;;;4.25;;
22024;SDS011;11176;51.448;6.650;2022-11-25T07:05:08;14.32;;;4.57;;
22024;SDS011;11176;51.448;6.650;2022-11-25T07:07:34;10.52;;;3.88;;
22024;SDS011;11176;51.448;6.650;2022-11-25T07:10:01;13.32;;;4.13;;
22024;SDS011;11176;51.448;6.650;2022-11-25T07:12:29;15.77;;;4.60;;
22024;SDS011;11176;51.448;6.650;2022-11-25T07:14:55;15.52;;;4.97;;
22024;SDS011;11176;51.448;6.650;2022-11-25T07:17:22;14.45;;;6.18;;
22024;SDS011;11176;51.448;6.650;2022-11-25T07:19:48;21.90;;;8.20;;
22024;SDS011;11176;51.448;6.650;2022-11-25T07:22:15;16.52;;;7.28;;
22024;SDS011;11176;51.448;6.650;2022-11-25T07:24:41;21.92;;;7.43;;
22024;SDS011;11176;51.448;6.650;2022-11-25T07:27:07;18.52;;;7.43;;
22024;SDS011;11176;51.448;6.650;2022-11-25T07:29:34;20.00;;;7.40;;
22024;SDS011;11176;51.448;6.650;2022-11-25T07:32:20;20.73;;;7.05;;
22024;SDS011;11176;51.448;6.650;2022-11-25T07:34:48;18.00;;;7.07;;
22024;SDS011;11176;51.448;6.650;2022-11-25T07:37:16;22.50;;;6.47;;
22024;SDS011;11176;51.448;6.650;2022-11-25T07:39:43;17.52;;;6.63;;
22024;SDS011;11176;51.448;6.650;2022-11-25T07:42:09;17.88;;;6.60;;
22024;SDS011;11176;51.448;6.650;2022-11-25T07:44:36;16.17;;;6.45;;
22024;SDS011;11176;51.448;6.650;2022-11-25T07:47:22;17.27;;;6.35;;
22024;SDS011;11176;51.448;6.650;2022-11-25T07:49:50;20.10;;;6.65;;
22024;SDS011;11176;51.448;6.650;2022-11-25T07:52:16;16.88;;;6.13;;
22024;SDS011;11176;51.448;6.650;2022-11-25T07:54:43;13.77;;;6.35;;
22024;SDS011;11176;51.448;6.650;2022-11-25T07:57:09;19.08;;;6.55;;
22024;SDS011;11176;51.448;6.650;2022-11-25T07:59:36;22.92;;;6.65;;
22024;SDS011;11176;51.448;6.650;2022-11-25T08:02:07;20.08;;;6.65;;
22024;SDS011;11176;51.448;6.650;2022-11-25T08:04:35;19.95;;;6.10;;
22024;SDS011;11176;51.448;6.650;2022-11-25T08:07:02;16.35;;;5.95;;
22024;SDS011;11176;51.448;6.650;2022-11-25T08:09:28;17.55;;;5.55;;
22024;SDS011;11176;51.448;6.650;2022-11-25T08:11:54;15.38;;;5.25;;
22024;SDS011;11176;51.448;6.650;2022-11-25T08:14:21;16.60;;;5.57;;
22024;SDS011;11176;51.448;6.650;2022-11-25T08:16:48;16.95;;;5.25;;
22024;SDS011;11176;51.448;6.650;2022-11-25T08:19:15;12.43;;;4.45;;
22024;SDS011;11176;51.448;6.650;2022-11-25T08:21:42;11.80;;;4.25;;
22024;SDS011;11176;51.448;6.650;2022-11-25T08:24:17;14.55;;;4.75;;
22024;SDS011;11176;51.448;6.650;2022-11-25T08:26:45;14.52;;;4.45;;
22024;SDS011;11176;51.448;6.650;2022-11-25T08:29:13;16.05;;;4.80;;
22024;SDS011;11176;51.448;6.650;2022-11-25T08:31:41;12.82;;;4.15;;
22024;SDS011;11176;51.448;6.650;2022-11-25T08:34:09;16.90;;;4.82;;
22024;SDS011;11176;51.448;6.650;2022-11-25T08:36:43;18.05;;;4.85;;
22024;SDS011;11176;51.448;6.650;2022-11-25T08:39:14;11.77;;;4.45;;
22024;SDS011;11176;51.448;6.650;2022-11-25T08:42:02;18.70;;;5.22;;
22024;SDS011;11176;51.448;6.650;2022-11-25T08:44:29;11.88;;;4.25;;
22024;SDS011;11176;51.448;6.650;2022-11-25T08:46:56;16.48;;;4.82;;
22024;SDS011;11176;51.448;6.650;2022-11-25T08:49:22;18.23;;;4.60;;
22024;SDS011;11176;51.448;6.650;2022-11-25T08:51:51;15.00;;;4.80;;
22024;SDS011;11176;51.448;6.650;2022-11-25T08:54:18;12.63;;;4.32;;
22024;SDS011;11176;51.448;6.650;2022-11-25T08:56:44;10.23;;;3.55;;
22024;SDS011;11176;51.448;6.650;2022-11-25T08:59:11;15.27;;;4.75;;
22024;SDS011;11176;51.448;6.650;2022-11-25T09:01:38;13.40;;;4.05;;
22024;SDS011;11176;51.448;6.650;2022-11-25T09:04:04;14.55;;;3.45;;
22024;SDS011;11176;51.448;6.650;2022-11-25T09:06:31;14.57;;;4.63;;
22024;SDS011;11176;51.448;6.650;2022-11-25T09:08:57;12.82;;;3.65;;
22024;SDS011;11176;51.448;6.650;2022-11-25T09:11:26;14.45;;;3.80;;
22024;SDS011;11176;51.448;6.650;2022-11-25T09:13:53;11.60;;;3.88;;
22024;SDS011;11176;51.448;6.650;2022-11-25T09:16:20;10.70;;;3.97;;
22024;SDS011;11176;51.448;6.650;2022-11-25T09:18:46;14.60;;;4.22;;
22024;SDS011;11176;51.448;6.650;2022-11-25T09:21:21;11.45;;;3.80;;
22024;SDS011;11176;51.448;6.650;2022-11-25T09:23:50;12.10;;;4.20;;
22024;SDS011;11176;51.448;6.650;2022-11-25T09:26:25;11.90;;;3.78;;
22024;SDS011;11176;51.448;6.650;2022-11-25T09:28:53;15.15;;;3.70;;
22024;SDS011;11176;51.448;6.650;2022-11-25T09:31:21;11.48;;;3.83;;
22024;SDS011;11176;51.448;6.650;2022-11-25T09:33:48;14.55;;;4.00;;
22024;SDS011;11176;51.448;6.650;2022-11-25T09:36:15;9.38;;;3.50;;
22024;SDS011;11176;51.448;6.650;2022-11-25T09:38:43;9.95;;;3.70;;
22024;SDS011;11176;51.448;6.650;2022-11-25T09:50:55;10.75;;;3.92;;
22024;SDS011;11176;51.448;6.650;2022-11-25T09:53:37;12.98;;;5.00;;
22024;SDS011;11176;51.448;6.650;2022-11-25T09:56:11;9.77;;;4.05;;
22024;SDS011;11176;51.448;6.650;2022-11-25T09:58:49;14.57;;;4.70;;
22024;SDS011;11176;51.448;6.650;2022-11-25T10:01:21;10.75;;;3.55;;
22024;SDS011;11176;51.448;6.650;2022-11-25T10:04:00;9.55;;;3.60;;
22024;SDS011;11176;51.448;6.650;2022-11-25T10:06:35;10.50;;;3.13;;
22024;SDS011;11176;51.448;6.650;2022-11-25T10:09:12;14.60;;;3.83;;
22024;SDS011;11176;51.448;6.650;2022-11-25T10:11:51;15.98;;;4.10;;
22024;SDS011;11176;51.448;6.650;2022-11-25T10:14:34;12.98;;;3.58;;
22024;SDS011;11176;51.448;6.650;2022-11-25T10:20:06;8.77;;;3.05;;
22024;SDS011;11176;51.448;6.650;2022-11-25T10:22:45;7.25;;;2.75;;
22024;SDS011;11176;51.448;6.650;2022-11-25T10:25:16;8.73;;;3.10;;
22024;SDS011;11176;51.448;6.650;2022-11-25T10:27:51;10.45;;;3.33;;
22024;SDS011;11176;51.448;6.650;2022-11-25T10:30:23;10.27;;;2.85;;
22024;SDS011;11176;51.448;6.650;2022-11-25T10:33:00;12.20;;;3.20;;
22024;SDS011;11176;51.448;6.650;2022-11-25T10:35:33;9.65;;;2.85;;
22024;SDS011;11176;51.448;6.650;2022-11-25T10:38:22;12.98;;;2.83;;
22024;SDS011;11176;51.448;6.650;2022-11-25T10:40:54;8.48;;;2.80;;
22024;SDS011;11176;51.448;6.650;2022-11-25T10:43:21;9.77;;;3.25;;
22024;SDS011;11176;51.448;6.650;2022-11-25T10:51:29;7.90;;;2.72;;
22024;SDS011;11176;51.448;6.650;2022-11-25T10:57:00;12.07;;;3.38;;
22024;SDS011;11176;51.448;6.650;2022-11-25T10:59:29;11.80;;;3.35;;
22024;SDS011;11176;51.448;6.650;2022-11-25T11:07:35;12.70;;;2.95;;
22024;SDS011;11176;51.448;6.650;2022-11-25T11:15:27;9.98;;;2.65;;
22024;SDS011;11176;51.448;6.650;2022-11-25T11:17:56;10.77;;;3.13;;
22024;SDS011;11176;51.448;6.650;2022-11-25T11:20:27;10.93;;;3.03;;
22024;SDS011;11176;51.448;6.650;2022-11-25T11:23:04;10.52;;;2.70;;
22024;SDS011;11176;51.448;6.650;2022-11-25T11:25:36;11.27;;;2.70;;
22024;SDS011;11176;51.448;6.650;2022-11-25T11:31:14;10.88;;;2.35;;
22024;SDS011;11176;51.448;6.650;2022-11-25T11:36:28;9.32;;;2.58;;
22024;SDS011;11176;51.448;6.650;2022-11-25T11:47:36;8.90;;;2.67;;
22024;SDS011;11176;51.448;6.650;2022-11-25T11:52:56;12.13;;;3.15;;
22024;SDS011;11176;51.448;6.650;2022-11-25T12:02:05;13.48;;;2.83;;
22024;SDS011;11176;51.448;6.650;2022-11-25T12:04:39;11.55;;;2.80;;
22024;SDS011;11176;51.448;6.650;2022-11-25T12:07:25;13.30;;;2.88;;
22024;SDS011;11176;51.448;6.650;2022-11-25T12:10:07;7.25;;;2.25;;
22024;SDS011;11176;51.448;6.650;2022-11-25T12:15:45;10.10;;;2.70;;
22024;SDS011;11176;51.448;6.650;2022-11-25T12:23:20;11.70;;;2.97;;
22024;SDS011;11176;51.448;6.650;2022-11-25T12:25:53;12.55;;;2.80;;
22024;SDS011;11176;51.448;6.650;2022-11-25T12:28:32;11.32;;;2.35;;
22024;SDS011;11176;51.448;6.650;2022-11-25T12:31:19;9.55;;;2.50;;
22024;SDS011;11176;51.448;6.650;2022-11-25T12:36:42;7.88;;;2.10;;
22024;SDS011;11176;51.448;6.650;2022-11-25T12:41:49;8.70;;;2.33;;
22024;SDS011;11176;51.448;6.650;2022-11-25T12:44:20;10.73;;;2.70;;
22024;SDS011;11176;51.448;6.650;2022-11-25T12:46:57;10.60;;;2.55;;
22024;SDS011;11176;51.448;6.650;2022-11-25T12:49:25;6.00;;;2.20;;
22024;SDS011;11176;51.448;6.650;2022-11-25T13:03:17;8.98;;;2.45;;
22024;SDS011;11176;51.448;6.650;2022-11-25T13:05:58;13.75;;;2.85;;
22024;SDS011;11176;51.448;6.650;2022-11-25T13:16:25;11.25;;;2.80;;
22024;SDS011;11176;51.448;6.650;2022-11-25T13:18:53;8.02;;;2.25;;
22024;SDS011;11176;51.448;6.650;2022-11-25T13:21:21;10.38;;;2.40;;
22024;SDS011;11176;51.448;6.650;2022-11-25T13:23:50;9.60;;;2.28;;
22024;SDS011;11176;51.448;6.650;2022-11-25T13:28:54;11.35;;;2.28;;
22024;SDS011;11176;51.448;6.650;2022-11-25T13:31:22;12.40;;;2.45;;
22024;SDS011;11176;51.448;6.650;2022-11-25T13:33:55;9.30;;;2.22;;
22024;SDS011;11176;51.448;6.650;2022-11-25T13:36:44;9.95;;;2.35;;
22024;SDS011;11176;51.448;6.650;2022-11-25T13:44:33;6.70;;;1.83;;
22024;SDS011;11176;51.448;6.650;2022-11-25T13:49:50;9.95;;;2.67;;
22024;SDS011;11176;51.448;6.650;2022-11-25T13:54:47;7.05;;;1.85;;
22024;SDS011;11176;51.448;6.650;2022-11-25T13:57:17;9.32;;;2.10;;
22024;SDS011;11176;51.448;6.650;2022-11-25T14:00:06;8.45;;;2.22;;
22024;SDS011;11176;51.448;6.650;2022-11-25T14:02:53;7.50;;;2.00;;
22024;SDS011;11176;51.448;6.650;2022-11-25T14:30:53;9.45;;;2.28;;
22024;SDS011;11176;51.448;6.650;2022-11-25T14:33:30;7.85;;;2.63;;
22024;SDS011;11176;51.448;6.650;2022-11-25T14:36:06;7.85;;;2.15;;
22024;SDS011;11176;51.448;6.650;2022-11-25T14:41:29;7.78;;;2.20;;
22024;SDS011;11176;51.448;6.650;2022-11-25T14:44:03;9.15;;;2.50;;
22024;SDS011;11176;51.448;6.650;2022-11-25T14:46:32;11.02;;;3.80;;
22024;SDS011;11176;51.448;6.650;2022-11-25T14:48:59;8.63;;;3.72;;
22024;SDS011;11176;51.448;6.650;2022-11-25T14:51:33;11.18;;;3.30;;
22024;SDS011;11176;51.448;6.650;2022-11-25T14:54:02;8.57;;;2.60;;
22024;SDS011;11176;51.448;6.650;2022-11-25T14:56:33;9.70;;;2.90;;
22024;SDS011;11176;51.448;6.650;2022-11-25T14:59:01;7.78;;;2.70;;
22024;SDS011;11176;51.448;6.650;2022-11-25T15:01:29;8.98;;;2.72;;
22024;SDS011;11176;51.448;6.650;2022-11-25T15:04:02;6.65;;;2.45;;
22024;SDS011;11176;51.448;6.650;2022-11-25T15:06:32;8.85;;;2.45;;
22024;SDS011;11176;51.448;6.650;2022-11-25T15:09:00;11.25;;;3.08;;
22024;SDS011;11176;51.448;6.650;2022-11-25T15:11:29;9.98;;;2.25;;
22024;SDS011;11176;51.448;6.650;2022-11-25T15:14:02;5.68;;;1.83;;
22024;SDS011;11176;51.448;6.650;2022-11-25T15:16:32;12.48;;;2.72;;
22024;SDS011;11176;51.448;6.650;2022-11-25T15:19:02;9.82;;;2.55;;
22024;SDS011;11176;51.448;6.650;2022-11-25T15:21:31;8.35;;;2.70;;
22024;SDS011;11176;51.448;6.650;2022-11-25T15:24:27;9.00;;;3.00;;
22024;SDS011;11176;51.448;6.650;2022-11-25T15:26:56;14.45;;;2.88;;
22024;SDS011;11176;51.448;6.650;2022-11-25T15:29:25;6.38;;;2.33;;
22024;SDS011;11176;51.448;6.650;2022-11-25T15:31:53;7.60;;;2.53;;
22024;SDS011;11176;51.448;6.650;2022-11-25T15:34:21;7.97;;;2.55;;
22024;SDS011;11176;51.448;6.650;2022-11-25T15:36:49;8.57;;;2.60;;
22024;SDS011;11176;51.448;6.650;2022-11-25T15:39:36;9.93;;;3.03;;
22024;SDS011;11176;51.448;6.650;2022-11-25T15:44:52;9.20;;;3.28;;
22024;SDS011;11176;51.448;6.650;2022-11-25T15:47:26;11.88;;;4.95;;
22024;SDS011;11176;51.448;6.650;2022-11-25T15:49:57;15.35;;;7.15;;
22024;SDS011;11176;51.448;6.650;2022-11-25T15:52:28;12.95;;;7.13;;
22024;SDS011;11176;51.448;6.650;2022-11-25T15:55:02;13.50;;;5.70;;
22024;SDS011;11176;51.448;6.650;2022-11-25T15:57:33;9.93;;;4.50;;
22024;SDS011;11176;51.448;6.650;2022-11-25T16:00:12;10.60;;;3.97;;
22024;SDS011;11176;51.448;6.650;2022-11-25T16:07:39;10.55;;;3.10;;
22024;SDS011;11176;51.448;6.650;2022-11-25T16:18:31;8.20;;;2.97;;
22024;SDS011;11176;51.448;6.650;2022-11-25T16:21:12;9.25;;;3.08;;
22024;SDS011;11176;51.448;6.650;2022-11-25T16:23:49;15.30;;;3.90;;
22024;SDS011;11176;51.448;6.650;2022-11-25T16:28:51;8.73;;;3.33;;
22024;SDS011;11176;51.448;6.650;2022-11-25T16:31:20;11.73;;;2.83;;
22024;SDS011;11176;51.448;6.650;2022-11-25T16:33:47;7.65;;;2.63;;
22024;SDS011;11176;51.448;6.650;2022-11-25T16:36:15;13.50;;;3.28;;
22024;SDS011;11176;51.448;6.650;2022-11-25T16:38:41;10.07;;;2.85;;
22024;SDS011;11176;51.448;6.650;2022-11-25T16:41:09;11.45;;;2.92;;
22024;SDS011;11176;51.448;6.650;2022-11-25T16:43:44;9.57;;;2.67;;
22024;SDS011;11176;51.448;6.650;2022-11-25T16:46:12;9.82;;;2.60;;
22024;SDS011;11176;51.448;6.650;2022-11-25T16:48:43;7.72;;;2.83;;
22024;SDS011;11176;51.448;6.650;2022-11-25T16:51:17;11.73;;;3.10;;
22024;SDS011;11176;51.448;6.650;2022-11-25T16:53:47;8.73;;;2.95;;
22024;SDS011;11176;51.448;6.650;2022-11-25T16:56:17;8.98;;;2.35;;
22024;SDS011;11176;51.448;6.650;2022-11-25T16:58:49;10.40;;;3.55;;
22024;SDS011;11176;51.448;6.650;2022-11-25T17:01:16;9.20;;;3.40;;
22024;SDS011;11176;51.448;6.650;2022-11-25T17:03:44;8.18;;;3.08;;
22024;SDS011;11176;51.448;6.650;2022-11-25T17:06:12;9.52;;;3.17;;
22024;SDS011;11176;51.448;6.650;2022-11-25T17:08:47;13.65;;;4.45;;
22024;SDS011;11176;51.448;6.650;2022-11-25T17:11:14;10.10;;;3.65;;
22024;SDS011;11176;51.448;6.650;2022-11-25T17:13:46;10.77;;;3.83;;
22024;SDS011;11176;51.448;6.650;2022-11-25T17:16:16;11.63;;;3.20;;
22024;SDS011;11176;51.448;6.650;2022-11-25T17:18:46;10.93;;;3.63;;
22024;SDS011;11176;51.448;6.650;2022-11-25T17:21:14;11.68;;;3.35;;
22024;SDS011;11176;51.448;6.650;2022-11-25T17:23:42;9.73;;;3.30;;
22024;SDS011;11176;51.448;6.650;2022-11-25T17:26:17;9.77;;;3.22;;
22024;SDS011;11176;51.448;6.650;2022-11-25T17:28:49;7.32;;;3.25;;